createdAt,value
2018-11-22T12:17:45.448Z,6.08
2018-11-22T12:20:14.838Z,6.47
2018-11-22T12:22:45.770Z,6.50
2018-11-22T12:25:15.840Z,5.97
2018-11-22T12:27:45.654Z,6.37
2018-11-22T12:30:17.664Z,5.62
2018-11-22T12:32:46.473Z,6.12
2018-11-22T12:35:20.632Z,5.50
2018-11-22T12:37:55.104Z,5.37
2018-11-22T12:40:23.878Z,4.85
2018-11-22T12:42:52.575Z,4.97
2018-11-22T12:45:21.442Z,5.25
2018-11-22T12:47:50.217Z,4.80
2018-11-22T12:50:18.662Z,4.70
2018-11-22T12:52:47.572Z,5.45
2018-11-22T12:55:16.343Z,4.33
2018-11-22T12:57:45.150Z,4.03
2018-11-22T13:00:15.261Z,4.33
2018-11-22T13:02:44.268Z,4.90
2018-11-22T13:05:14.292Z,5.10
2018-11-22T13:07:43.174Z,5.40
2018-11-22T13:10:13.328Z,5.70
2018-11-22T13:12:43.150Z,4.87
2018-11-22T13:15:13.586Z,5.37
2018-11-22T13:17:42.306Z,5.30
2018-11-22T13:20:13.482Z,4.90
2018-11-22T13:22:42.218Z,4.90
2018-11-22T13:25:13.680Z,7.60
2018-11-22T13:27:42.538Z,6.13
2018-11-22T13:30:17.206Z,5.70
2018-11-22T13:32:47.195Z,5.10
2018-11-22T13:35:16.650Z,5.27
2018-11-22T13:37:46.440Z,4.83
2018-11-22T13:40:15.210Z,4.63
2018-11-22T13:42:44.525Z,4.27
2018-11-22T13:45:15.062Z,4.53
2018-11-22T13:47:44.794Z,5.97
2018-11-22T13:50:18.713Z,5.13
2018-11-22T13:52:48.950Z,3.40
2018-11-22T13:55:17.695Z,3.67
2018-11-22T13:57:46.507Z,4.40
2018-11-22T14:00:18.356Z,4.07
2018-11-22T14:02:48.492Z,3.90
2018-11-22T14:05:17.420Z,4.47
2018-11-22T14:07:46.081Z,4.53
2018-11-22T14:10:16.231Z,4.10
2018-11-22T14:12:45.143Z,4.17
2018-11-22T14:15:16.231Z,4.60
2018-11-22T14:17:45.454Z,4.50
2018-11-22T14:20:16.432Z,4.00
2018-11-22T14:22:45.226Z,5.30
2018-11-22T14:25:14.790Z,5.33
2018-11-22T14:27:44.361Z,5.80
2018-11-22T14:30:14.660Z,7.30
2018-11-22T14:32:44.019Z,6.10
2018-11-22T14:35:13.978Z,5.60
2018-11-22T14:37:43.063Z,5.90
2018-11-22T14:40:20.091Z,5.93
2018-11-22T14:42:49.481Z,6.53
2018-11-22T14:45:18.199Z,7.90
2018-11-22T14:47:48.109Z,7.13
2018-11-22T14:50:35.485Z,8.27
2018-11-22T14:53:12.823Z,8.50
2018-11-22T14:55:41.749Z,8.67
2018-11-22T14:58:10.757Z,8.80
2018-11-22T15:00:39.533Z,10.57
2018-11-22T15:03:08.343Z,10.00
2018-11-22T15:05:37.289Z,8.47
2018-11-22T15:08:06.424Z,8.10
2018-11-22T15:10:35.293Z,9.20
2018-11-22T15:13:04.047Z,10.33
2018-11-22T15:15:32.792Z,9.13
2018-11-22T15:18:01.526Z,9.97
2018-11-22T15:20:30.206Z,10.03
2018-11-22T15:22:59.074Z,10.03
2018-11-22T15:25:28.754Z,9.17
2018-11-22T15:27:57.635Z,16.83
2018-11-22T15:30:27.601Z,14.47
2018-11-22T15:32:57.043Z,12.87
2018-11-22T15:35:27.241Z,12.17
2018-11-22T15:37:56.238Z,14.10
2018-11-22T15:40:25.747Z,12.50
2018-11-22T15:42:55.959Z,13.27
2018-11-22T15:45:25.835Z,12.73
2018-11-22T15:47:54.629Z,12.57
2018-11-22T15:50:24.450Z,13.60
2018-11-22T15:52:53.257Z,13.90
2018-11-22T15:55:22.581Z,13.50
2018-11-22T15:57:53.050Z,13.90
2018-11-22T16:00:26.544Z,13.33
2018-11-22T16:02:55.804Z,14.17
2018-11-22T16:05:25.340Z,13.73
2018-11-22T16:07:54.234Z,13.20
2018-11-22T16:10:26.874Z,15.67
2018-11-22T16:12:54.568Z,14.13
2018-11-22T16:15:30.787Z,14.60
2018-11-22T16:17:59.473Z,15.23
2018-11-22T16:20:28.275Z,13.87
2018-11-22T16:22:57.078Z,13.67
2018-11-22T16:25:25.665Z,12.67
2018-11-22T16:27:54.533Z,12.67
2018-11-22T16:30:24.233Z,14.33
2018-11-22T16:32:53.333Z,13.97
2018-11-22T16:35:22.802Z,22.23
2018-11-22T16:37:51.486Z,21.40
2018-11-22T16:40:21.467Z,16.20
2018-11-22T16:42:51.167Z,13.83
2018-11-22T16:45:27.595Z,14.60
2018-11-22T16:47:57.135Z,13.77
2018-11-22T16:50:27.063Z,14.87
2018-11-22T16:52:55.990Z,15.70
2018-11-22T16:55:25.510Z,17.63
2018-11-22T16:57:55.129Z,15.27
2018-11-22T17:00:26.672Z,17.47
2018-11-22T17:02:56.821Z,17.57
2018-11-22T17:05:25.498Z,17.37
2018-11-22T17:07:54.362Z,20.30
2018-11-22T17:10:24.241Z,42.37
2018-11-22T17:12:54.311Z,43.87
2018-11-22T17:15:24.273Z,31.77
2018-11-22T17:17:53.302Z,28.47
2018-11-22T17:20:22.689Z,26.67
2018-11-22T17:22:52.114Z,23.97
2018-11-22T17:25:22.077Z,23.63
2018-11-22T17:27:52.275Z,23.67
2018-11-22T17:30:23.238Z,24.43
2018-11-22T17:32:51.871Z,23.03
2018-11-22T17:35:22.726Z,25.03
2018-11-22T17:37:51.969Z,27.83
2018-11-22T17:40:24.142Z,28.23
2018-11-22T17:42:53.271Z,27.20
2018-11-22T17:45:25.576Z,34.40
2018-11-22T17:47:54.385Z,52.70
2018-11-22T17:50:24.766Z,46.63
2018-11-22T17:52:53.506Z,41.83
2018-11-22T17:55:23.572Z,44.27
2018-11-22T17:57:52.385Z,46.87
2018-11-22T18:00:22.521Z,46.27
2018-11-22T18:02:52.194Z,48.23
2018-11-22T18:05:23.542Z,48.07
2018-11-22T18:07:49.975Z,41.87
2018-11-22T18:10:21.007Z,42.47
2018-11-22T18:12:50.418Z,45.70
2018-11-22T18:15:19.948Z,43.73
2018-11-22T18:17:48.892Z,47.37
2018-11-22T18:20:20.691Z,49.17
2018-11-22T18:22:50.319Z,43.77
2018-11-22T18:25:20.134Z,34.70
2018-11-22T18:27:48.886Z,34.33
2018-11-22T18:30:22.113Z,33.07
2018-11-22T18:32:52.203Z,32.37
2018-11-22T18:35:21.064Z,30.60
2018-11-22T18:37:50.317Z,30.30
2018-11-22T18:40:20.086Z,28.57
2018-11-22T18:42:49.844Z,30.80
2018-11-22T18:45:23.811Z,31.63
2018-11-22T18:47:52.641Z,31.63
2018-11-22T18:50:22.834Z,27.57
2018-11-22T18:52:59.684Z,26.73
2018-11-22T18:55:29.289Z,28.73
2018-11-22T18:57:58.082Z,25.83
2018-11-22T19:00:27.859Z,26.00
2018-11-22T19:02:58.014Z,28.53
2018-11-22T19:05:26.924Z,25.77
2018-11-22T19:07:56.419Z,26.10
2018-11-22T19:10:29.490Z,26.77
2018-11-22T19:13:00.734Z,27.50
2018-11-22T19:15:30.527Z,26.80
2018-11-22T19:17:59.522Z,26.80
2018-11-22T19:20:31.616Z,24.83
2018-11-22T19:23:01.103Z,25.13
2018-11-22T19:25:29.769Z,25.53
2018-11-22T19:27:59.479Z,24.50
2018-11-22T19:30:37.066Z,23.10
2018-11-22T19:33:02.201Z,22.77
2018-11-22T19:35:32.171Z,25.27
2018-11-22T19:38:01.194Z,25.73
2018-11-22T19:40:31.250Z,25.63
2018-11-22T19:43:01.587Z,25.20
2018-11-22T19:45:31.714Z,24.07
2018-11-22T19:48:00.434Z,37.80
2018-11-22T19:50:29.711Z,26.43
2018-11-22T19:52:59.469Z,25.60
2018-11-22T19:55:29.598Z,25.00
2018-11-22T19:58:00.928Z,24.73
2018-11-22T20:00:29.821Z,22.60
2018-11-22T20:02:59.839Z,27.82
2018-11-22T20:05:29.503Z,28.12
2018-11-22T20:07:59.765Z,24.97
2018-11-22T20:10:30.709Z,25.77
2018-11-22T20:12:59.633Z,24.10
2018-11-22T20:15:28.705Z,22.17
2018-11-22T20:17:58.007Z,22.47
2018-11-22T20:20:26.961Z,22.87
2018-11-22T20:22:56.284Z,21.73
2018-11-22T20:25:25.072Z,22.00
2018-11-22T20:27:54.971Z,22.00
2018-11-22T20:30:25.122Z,25.60
2018-11-22T20:32:53.844Z,23.17
2018-11-22T20:35:23.195Z,23.13
2018-11-22T20:37:52.588Z,24.60
2018-11-22T20:40:22.476Z,25.97
2018-11-22T20:42:51.376Z,26.20
2018-11-22T20:45:21.699Z,24.97
2018-11-22T20:47:52.071Z,25.40
2018-11-22T20:50:22.195Z,27.63
2018-11-22T20:52:51.020Z,27.17
2018-11-22T20:55:23.212Z,27.93
2018-11-22T20:57:54.362Z,25.27
2018-11-22T21:00:24.409Z,25.07
2018-11-22T21:02:53.242Z,24.50
2018-11-22T21:05:22.568Z,23.83
2018-11-22T21:07:51.271Z,23.43
2018-11-22T21:10:27.615Z,26.30
2018-11-22T21:12:56.553Z,24.03
2018-11-22T21:15:26.931Z,22.03
2018-11-22T21:17:57.049Z,21.07
2018-11-22T21:20:27.294Z,23.77
2018-11-22T21:22:56.160Z,20.10
2018-11-22T21:25:24.910Z,19.27
2018-11-22T21:27:53.620Z,19.23
2018-11-22T21:30:24.934Z,17.80
2018-11-22T21:32:54.162Z,16.07
2018-11-22T21:35:23.153Z,16.40
2018-11-22T21:37:53.110Z,16.70
2018-11-22T21:40:22.397Z,15.67
2018-11-22T21:42:50.998Z,16.30
2018-11-22T21:45:21.017Z,19.70
2018-11-22T21:47:49.753Z,18.20
2018-11-22T21:50:19.774Z,16.50
2018-11-22T21:52:48.554Z,15.30
2018-11-22T21:55:28.327Z,15.10
2018-11-22T21:57:58.464Z,14.27
2018-11-22T22:00:35.829Z,14.93
2018-11-22T22:03:06.079Z,14.97
2018-11-22T22:05:36.710Z,15.53
2018-11-22T22:08:05.792Z,14.67
2018-11-22T22:10:34.646Z,13.73
2018-11-22T22:13:03.333Z,14.73
2018-11-22T22:15:33.458Z,14.40
2018-11-22T22:18:02.419Z,15.13
2018-11-22T22:20:32.484Z,14.30
2018-11-22T22:23:01.346Z,14.23
2018-11-22T22:25:30.234Z,14.17
2018-11-22T22:27:59.419Z,13.57
2018-11-22T22:30:29.543Z,13.33
2018-11-22T22:32:59.748Z,11.80
2018-11-22T22:35:28.472Z,13.23
2018-11-22T22:37:57.437Z,12.73
2018-11-22T22:40:27.473Z,12.33
2018-11-22T22:42:56.904Z,13.33
2018-11-22T22:45:26.617Z,13.10
2018-11-22T22:47:55.299Z,17.00
2018-11-22T22:50:26.333Z,12.67
2018-11-22T22:52:56.266Z,13.50
2018-11-22T22:55:25.189Z,13.80
2018-11-22T22:57:53.774Z,13.00
2018-11-22T23:00:28.933Z,12.70
2018-11-22T23:02:59.274Z,13.57
2018-11-22T23:05:28.706Z,14.50
2018-11-22T23:07:57.585Z,13.00
2018-11-22T23:10:26.449Z,13.30
2018-11-22T23:12:55.969Z,12.57
2018-11-22T23:15:25.465Z,12.70
2018-11-22T23:17:54.178Z,12.83
2018-11-22T23:20:24.183Z,11.60
2018-11-22T23:22:53.238Z,12.23
2018-11-22T23:25:22.970Z,11.40
2018-11-22T23:27:51.610Z,12.70
2018-11-22T23:30:38.273Z,12.43
2018-11-22T23:33:08.082Z,11.70
2018-11-22T23:35:36.842Z,12.13
2018-11-22T23:38:05.858Z,12.37
2018-11-22T23:40:35.164Z,12.17
2018-11-22T23:43:03.996Z,11.80
2018-11-22T23:45:33.161Z,12.67
2018-11-22T23:48:02.108Z,10.73
2018-11-22T23:50:31.937Z,11.27
2018-11-22T23:53:01.597Z,11.57
2018-11-22T23:55:30.521Z,11.13
2018-11-22T23:57:59.214Z,11.63
